sensor_id;sensor_type;location;lat;lon;timestamp;P1;durP1;ratioP1;P2;durP2;ratioP2
54921;SDS011;40824;45.116;21.296;2023-02-01T00:02:19;25.52;;;12.88;;
54921;SDS011;40824;45.116;21.296;2023-02-01T00:04:45;21.58;;;11.27;;
54921;SDS011;40824;45.116;21.296;2023-02-01T00:07:11;25.15;;;13.63;;
54921;SDS011;40824;45.116;21.296;2023-02-01T00:09:37;34.50;;;14.43;;
54921;SDS011;40824;45.116;21.296;2023-02-01T00:12:04;38.67;;;17.42;;
54921;SDS011;40824;45.116;21.296;2023-02-01T00:14:32;28.42;;;14.05;;
54921;SDS011;40824;45.116;21.296;2023-02-01T00:17:03;31.52;;;13.57;;
54921;SDS011;40824;45.116;21.296;2023-02-01T00:19:30;38.10;;;14.82;;
54921;SDS011;40824;45.116;21.296;2023-02-01T00:21:56;39.90;;;18.25;;
54921;SDS011;40824;45.116;21.296;2023-02-01T00:24:25;40.00;;;16.27;;
54921;SDS011;40824;45.116;21.296;2023-02-01T00:26:51;44.08;;;17.40;;
54921;SDS011;40824;45.116;21.296;2023-02-01T00:29:18;26.42;;;14.45;;
54921;SDS011;40824;45.116;21.296;2023-02-01T00:31:45;28.83;;;13.55;;
54921;SDS011;40824;45.116;21.296;2023-02-01T00:34:12;27.45;;;13.68;;
54921;SDS011;40824;45.116;21.296;2023-02-01T00:36:38;23.08;;;13.02;;
54921;SDS011;40824;45.116;21.296;2023-02-01T00:39:04;29.58;;;15.93;;
54921;SDS011;40824;45.116;21.296;2023-02-01T00:41:30;27.08;;;15.27;;
54921;SDS011;40824;45.116;21.296;2023-02-01T00:43:59;24.52;;;14.13;;
54921;SDS011;40824;45.116;21.296;2023-02-01T00:46:26;27.42;;;16.17;;
54921;SDS011;40824;45.116;21.296;2023-02-01T00:48:52;22.00;;;14.38;;
54921;SDS011;40824;45.116;21.296;2023-02-01T00:51:19;29.75;;;16.58;;
54921;SDS011;40824;45.116;21.296;2023-02-01T00:53:46;31.33;;;17.17;;
54921;SDS011;40824;45.116;21.296;2023-02-01T00:56:12;31.25;;;17.02;;
54921;SDS011;40824;45.116;21.296;2023-02-01T00:58:39;21.48;;;13.70;;
54921;SDS011;40824;45.116;21.296;2023-02-01T01:01:10;21.77;;;13.68;;
54921;SDS011;40824;45.116;21.296;2023-02-01T01:03:38;25.45;;;14.07;;
54921;SDS011;40824;45.116;21.296;2023-02-01T01:06:05;25.48;;;14.90;;
54921;SDS011;40824;45.116;21.296;2023-02-01T01:08:32;41.60;;;18.92;;
54921;SDS011;40824;45.116;21.296;2023-02-01T01:10:58;32.22;;;17.35;;
54921;SDS011;40824;45.116;21.296;2023-02-01T01:13:24;25.27;;;16.77;;
54921;SDS011;40824;45.116;21.296;2023-02-01T01:15:50;26.50;;;14.05;;
54921;SDS011;40824;45.116;21.296;2023-02-01T01:18:16;25.42;;;14.00;;
54921;SDS011;40824;45.116;21.296;2023-02-01T01:20:42;24.73;;;14.40;;
54921;SDS011;40824;45.116;21.296;2023-02-01T01:23:08;19.70;;;11.60;;
54921;SDS011;40824;45.116;21.296;2023-02-01T01:25:38;24.40;;;12.45;;
54921;SDS011;40824;45.116;21.296;2023-02-01T01:28:05;26.33;;;13.73;;
54921;SDS011;40824;45.116;21.296;2023-02-01T01:30:33;26.15;;;13.70;;
54921;SDS011;40824;45.116;21.296;2023-02-01T01:32:59;23.02;;;13.02;;
54921;SDS011;40824;45.116;21.296;2023-02-01T01:35:25;25.17;;;12.90;;
54921;SDS011;40824;45.116;21.296;2023-02-01T01:37:51;22.48;;;13.32;;
54921;SDS011;40824;45.116;21.296;2023-02-01T01:40:17;24.23;;;14.88;;
54921;SDS011;40824;45.116;21.296;2023-02-01T01:42:43;25.17;;;15.95;;
54921;SDS011;40824;45.116;21.296;2023-02-01T01:47:48;29.63;;;17.67;;
54921;SDS011;40824;45.116;21.296;2023-02-01T01:50:17;29.63;;;16.08;;
54921;SDS011;40824;45.116;21.296;2023-02-01T01:52:46;29.33;;;17.73;;
54921;SDS011;40824;45.116;21.296;2023-02-01T01:55:13;25.73;;;16.23;;
54921;SDS011;40824;45.116;21.296;2023-02-01T01:57:42;28.63;;;17.92;;
54921;SDS011;40824;45.116;21.296;2023-02-01T02:00:11;23.98;;;15.65;;
54921;SDS011;40824;45.116;21.296;2023-02-01T02:02:38;26.85;;;15.20;;
54921;SDS011;40824;45.116;21.296;2023-02-01T02:05:06;27.20;;;15.02;;
54921;SDS011;40824;45.116;21.296;2023-02-01T02:07:34;20.83;;;12.93;;
54921;SDS011;40824;45.116;21.296;2023-02-01T02:10:03;18.92;;;12.02;;
54921;SDS011;40824;45.116;21.296;2023-02-01T02:12:30;24.10;;;13.13;;
54921;SDS011;40824;45.116;21.296;2023-02-01T02:14:57;24.23;;;13.15;;
54921;SDS011;40824;45.116;21.296;2023-02-01T02:38:42;20.08;;;11.52;;
54921;SDS011;40824;45.116;21.296;2023-02-01T02:41:15;21.23;;;11.30;;
54921;SDS011;40824;45.116;21.296;2023-02-01T02:44:03;20.08;;;11.68;;
54921;SDS011;40824;45.116;21.296;2023-02-01T02:46:50;19.15;;;11.98;;
54921;SDS011;40824;45.116;21.296;2023-02-01T02:52:08;21.63;;;12.48;;
54921;SDS011;40824;45.116;21.296;2023-02-01T02:54:53;30.55;;;16.85;;
54921;SDS011;40824;45.116;21.296;2023-02-01T02:57:23;24.58;;;16.48;;
54921;SDS011;40824;45.116;21.296;2023-02-01T03:00:09;24.35;;;16.08;;
54921;SDS011;40824;45.116;21.296;2023-02-01T03:02:54;30.13;;;18.38;;
54921;SDS011;40824;45.116;21.296;2023-02-01T03:05:40;40.08;;;21.15;;
54921;SDS011;40824;45.116;21.296;2023-02-01T03:08:17;30.60;;;18.60;;
54921;SDS011;40824;45.116;21.296;2023-02-01T03:13:12;37.92;;;21.85;;
54921;SDS011;40824;45.116;21.296;2023-02-01T03:15:40;39.53;;;22.02;;
54921;SDS011;40824;45.116;21.296;2023-02-01T03:18:16;39.38;;;20.80;;
54921;SDS011;40824;45.116;21.296;2023-02-01T03:20:46;31.95;;;17.90;;
54921;SDS011;40824;45.116;21.296;2023-02-01T03:23:15;30.95;;;18.77;;
54921;SDS011;40824;45.116;21.296;2023-02-01T03:25:42;29.75;;;16.38;;
54921;SDS011;40824;45.116;21.296;2023-02-01T03:28:09;26.33;;;15.77;;
54921;SDS011;40824;45.116;21.296;2023-02-01T03:30:36;24.52;;;15.73;;
54921;SDS011;40824;45.116;21.296;2023-02-01T03:33:04;24.15;;;14.88;;
54921;SDS011;40824;45.116;21.296;2023-02-01T03:38:24;31.50;;;17.55;;
54921;SDS011;40824;45.116;21.296;2023-02-01T03:40:55;27.45;;;16.27;;
54921;SDS011;40824;45.116;21.296;2023-02-01T03:43:22;23.85;;;14.68;;
54921;SDS011;40824;45.116;21.296;2023-02-01T03:45:53;17.92;;;12.13;;
54921;SDS011;40824;45.116;21.296;2023-02-01T03:48:20;21.35;;;11.75;;
54921;SDS011;40824;45.116;21.296;2023-02-01T03:50:49;18.02;;;12.40;;
54921;SDS011;40824;45.116;21.296;2023-02-01T03:53:17;23.95;;;12.82;;
54921;SDS011;40824;45.116;21.296;2023-02-01T03:55:45;23.40;;;11.32;;
54921;SDS011;40824;45.116;21.296;2023-02-01T03:58:15;20.50;;;12.30;;
54921;SDS011;40824;45.116;21.296;2023-02-01T04:00:45;19.48;;;11.68;;
54921;SDS011;40824;45.116;21.296;2023-02-01T04:03:11;21.75;;;12.38;;
54921;SDS011;40824;45.116;21.296;2023-02-01T04:05:38;21.27;;;12.50;;
54921;SDS011;40824;45.116;21.296;2023-02-01T04:08:04;22.80;;;11.90;;
54921;SDS011;40824;45.116;21.296;2023-02-01T04:10:30;18.88;;;10.88;;
54921;SDS011;40824;45.116;21.296;2023-02-01T04:12:56;16.98;;;11.38;;
54921;SDS011;40824;45.116;21.296;2023-02-01T04:15:22;22.15;;;12.75;;
54921;SDS011;40824;45.116;21.296;2023-02-01T04:17:51;19.05;;;12.80;;
54921;SDS011;40824;45.116;21.296;2023-02-01T04:20:17;22.85;;;12.30;;
54921;SDS011;40824;45.116;21.296;2023-02-01T04:22:43;19.00;;;12.32;;
54921;SDS011;40824;45.116;21.296;2023-02-01T04:25:10;20.30;;;13.05;;
54921;SDS011;40824;45.116;21.296;2023-02-01T04:27:36;20.05;;;11.95;;
54921;SDS011;40824;45.116;21.296;2023-02-01T04:30:04;18.85;;;12.02;;
54921;SDS011;40824;45.116;21.296;2023-02-01T04:32:34;21.20;;;11.88;;
54921;SDS011;40824;45.116;21.296;2023-02-01T04:35:00;20.90;;;12.50;;
54921;SDS011;40824;45.116;21.296;2023-02-01T04:37:26;19.15;;;11.38;;
54921;SDS011;40824;45.116;21.296;2023-02-01T04:39:55;17.92;;;11.80;;
54921;SDS011;40824;45.116;21.296;2023-02-01T04:42:21;23.48;;;11.07;;
54921;SDS011;40824;45.116;21.296;2023-02-01T04:44:47;22.98;;;11.00;;
54921;SDS011;40824;45.116;21.296;2023-02-01T04:47:13;19.80;;;11.05;;
54921;SDS011;40824;45.116;21.296;2023-02-01T04:49:40;18.67;;;11.40;;
54921;SDS011;40824;45.116;21.296;2023-02-01T04:52:08;16.05;;;10.25;;
54921;SDS011;40824;45.116;21.296;2023-02-01T04:54:34;21.30;;;11.23;;
54921;SDS011;40824;45.116;21.296;2023-02-01T04:57:00;19.63;;;11.15;;
54921;SDS011;40824;45.116;21.296;2023-02-01T04:59:26;15.40;;;10.15;;
54921;SDS011;40824;45.116;21.296;2023-02-01T05:01:53;21.08;;;11.18;;
54921;SDS011;40824;45.116;21.296;2023-02-01T05:04:19;20.10;;;12.00;;
54921;SDS011;40824;45.116;21.296;2023-02-01T05:06:45;19.15;;;12.05;;
54921;SDS011;40824;45.116;21.296;2023-02-01T05:09:11;17.42;;;11.45;;
54921;SDS011;40824;45.116;21.296;2023-02-01T05:11:38;20.40;;;11.90;;
54921;SDS011;40824;45.116;21.296;2023-02-01T05:14:23;19.95;;;11.68;;
54921;SDS011;40824;45.116;21.296;2023-02-01T05:16:49;15.77;;;10.13;;
54921;SDS011;40824;45.116;21.296;2023-02-01T05:19:15;15.45;;;9.32;;
54921;SDS011;40824;45.116;21.296;2023-02-01T05:21:41;20.33;;;12.30;;
54921;SDS011;40824;45.116;21.296;2023-02-01T05:24:07;17.13;;;11.00;;
54921;SDS011;40824;45.116;21.296;2023-02-01T05:26:34;21.75;;;10.02;;
54921;SDS011;40824;45.116;21.296;2023-02-01T05:29:00;29.23;;;11.10;;
54921;SDS011;40824;45.116;21.296;2023-02-01T05:31:26;16.00;;;9.45;;
54921;SDS011;40824;45.116;21.296;2023-02-01T05:33:55;21.90;;;10.75;;
54921;SDS011;40824;45.116;21.296;2023-02-01T05:36:23;21.40;;;10.13;;
54921;SDS011;40824;45.116;21.296;2023-02-01T05:38:50;17.45;;;9.90;;
54921;SDS011;40824;45.116;21.296;2023-02-01T05:41:16;16.08;;;10.68;;
54921;SDS011;40824;45.116;21.296;2023-02-01T05:43:42;17.80;;;10.50;;
54921;SDS011;40824;45.116;21.296;2023-02-01T05:46:08;16.73;;;10.10;;
54921;SDS011;40824;45.116;21.296;2023-02-01T05:48:41;20.27;;;11.48;;
54921;SDS011;40824;45.116;21.296;2023-02-01T05:51:07;24.20;;;14.25;;
54921;SDS011;40824;45.116;21.296;2023-02-01T05:53:33;24.10;;;11.80;;
54921;SDS011;40824;45.116;21.296;2023-02-01T05:55:59;17.73;;;11.18;;
54921;SDS011;40824;45.116;21.296;2023-02-01T05:58:26;17.50;;;10.27;;
54921;SDS011;40824;45.116;21.296;2023-02-01T06:00:52;16.45;;;9.35;;
54921;SDS011;40824;45.116;21.296;2023-02-01T06:03:18;18.50;;;11.02;;
54921;SDS011;40824;45.116;21.296;2023-02-01T06:05:44;21.23;;;10.10;;
54921;SDS011;40824;45.116;21.296;2023-02-01T06:08:11;15.88;;;9.73;;
54921;SDS011;40824;45.116;21.296;2023-02-01T06:10:37;17.98;;;10.57;;
54921;SDS011;40824;45.116;21.296;2023-02-01T06:13:03;18.00;;;10.30;;
54921;SDS011;40824;45.116;21.296;2023-02-01T06:15:29;22.08;;;10.82;;
54921;SDS011;40824;45.116;21.296;2023-02-01T06:17:56;14.68;;;9.35;;
54921;SDS011;40824;45.116;21.296;2023-02-01T06:20:22;18.17;;;10.27;;
54921;SDS011;40824;45.116;21.296;2023-02-01T06:22:48;15.43;;;8.98;;
54921;SDS011;40824;45.116;21.296;2023-02-01T06:25:15;17.42;;;9.18;;
54921;SDS011;40824;45.116;21.296;2023-02-01T06:27:42;19.48;;;9.35;;
54921;SDS011;40824;45.116;21.296;2023-02-01T06:30:10;14.07;;;10.05;;
54921;SDS011;40824;45.116;21.296;2023-02-01T06:32:38;16.38;;;9.88;;
54921;SDS011;40824;45.116;21.296;2023-02-01T06:35:06;18.95;;;10.40;;
54921;SDS011;40824;45.116;21.296;2023-02-01T06:37:32;18.65;;;10.23;;
54921;SDS011;40824;45.116;21.296;2023-02-01T06:40:01;18.98;;;11.13;;
54921;SDS011;40824;45.116;21.296;2023-02-01T06:42:27;20.23;;;11.40;;
54921;SDS011;40824;45.116;21.296;2023-02-01T06:44:53;17.08;;;9.63;;
54921;SDS011;40824;45.116;21.296;2023-02-01T06:47:19;17.55;;;10.38;;
54921;SDS011;40824;45.116;21.296;2023-02-01T06:49:45;23.13;;;12.63;;
54921;SDS011;40824;45.116;21.296;2023-02-01T06:52:11;16.05;;;10.77;;
54921;SDS011;40824;45.116;21.296;2023-02-01T06:54:37;18.40;;;11.45;;
54921;SDS011;40824;45.116;21.296;2023-02-01T06:57:04;19.65;;;10.48;;
54921;SDS011;40824;45.116;21.296;2023-02-01T06:59:30;15.45;;;9.77;;
54921;SDS011;40824;45.116;21.296;2023-02-01T07:01:56;20.98;;;11.10;;
54921;SDS011;40824;45.116;21.296;2023-02-01T07:04:22;18.77;;;11.40;;
54921;SDS011;40824;45.116;21.296;2023-02-01T07:06:48;15.23;;;10.00;;
54921;SDS011;40824;45.116;21.296;2023-02-01T07:09:14;17.90;;;11.20;;
54921;SDS011;40824;45.116;21.296;2023-02-01T07:11:41;18.75;;;11.90;;
54921;SDS011;40824;45.116;21.296;2023-02-01T07:14:09;16.73;;;11.23;;
54921;SDS011;40824;45.116;21.296;2023-02-01T07:16:35;19.35;;;11.70;;
54921;SDS011;40824;45.116;21.296;2023-02-01T07:19:01;17.60;;;11.15;;
54921;SDS011;40824;45.116;21.296;2023-02-01T07:21:27;19.35;;;12.52;;
54921;SDS011;40824;45.116;21.296;2023-02-01T07:23:54;21.25;;;13.07;;
54921;SDS011;40824;45.116;21.296;2023-02-01T07:26:20;20.45;;;13.18;;
54921;SDS011;40824;45.116;21.296;2023-02-01T07:28:46;23.58;;;13.35;;
54921;SDS011;40824;45.116;21.296;2023-02-01T07:31:14;22.88;;;15.10;;
54921;SDS011;40824;45.116;21.296;2023-02-01T07:33:41;24.70;;;16.02;;
54921;SDS011;40824;45.116;21.296;2023-02-01T07:36:07;21.27;;;13.57;;
54921;SDS011;40824;45.116;21.296;2023-02-01T07:38:36;18.50;;;13.02;;
54921;SDS011;40824;45.116;21.296;2023-02-01T07:41:03;19.67;;;13.23;;
54921;SDS011;40824;45.116;21.296;2023-02-01T07:43:29;19.27;;;12.85;;
54921;SDS011;40824;45.116;21.296;2023-02-01T07:45:56;19.75;;;12.48;;
54921;SDS011;40824;45.116;21.296;2023-02-01T07:48:22;20.48;;;12.27;;
54921;SDS011;40824;45.116;21.296;2023-02-01T07:50:56;18.30;;;11.63;;
54921;SDS011;40824;45.116;21.296;2023-02-01T07:55:48;22.63;;;12.88;;
54921;SDS011;40824;45.116;21.296;2023-02-01T07:58:17;25.35;;;14.07;;
54921;SDS011;40824;45.116;21.296;2023-02-01T08:00:43;21.27;;;12.13;;
54921;SDS011;40824;45.116;21.296;2023-02-01T08:03:28;21.10;;;12.85;;
54921;SDS011;40824;45.116;21.296;2023-02-01T08:05:55;17.15;;;11.85;;
54921;SDS011;40824;45.116;21.296;2023-02-01T08:08:21;22.15;;;14.35;;
54921;SDS011;40824;45.116;21.296;2023-02-01T08:10:47;21.30;;;13.23;;
54921;SDS011;40824;45.116;21.296;2023-02-01T08:13:14;20.52;;;14.07;;
54921;SDS011;40824;45.116;21.296;2023-02-01T08:15:40;16.25;;;12.07;;
54921;SDS011;40824;45.116;21.296;2023-02-01T08:18:06;16.33;;;11.18;;
54921;SDS011;40824;45.116;21.296;2023-02-01T08:20:33;21.42;;;11.25;;
54921;SDS011;40824;45.116;21.296;2023-02-01T08:23:01;15.30;;;10.88;;
54921;SDS011;40824;45.116;21.296;2023-02-01T08:25:27;18.23;;;12.02;;
54921;SDS011;40824;45.116;21.296;2023-02-01T08:27:53;16.60;;;10.27;;
54921;SDS011;40824;45.116;21.296;2023-02-01T08:30:20;12.52;;;9.18;;
54921;SDS011;40824;45.116;21.296;2023-02-01T08:32:46;13.18;;;9.38;;
54921;SDS011;40824;45.116;21.296;2023-02-01T08:35:13;11.75;;;9.57;;
54921;SDS011;40824;45.116;21.296;2023-02-01T08:37:39;13.00;;;9.48;;
54921;SDS011;40824;45.116;21.296;2023-02-01T08:40:05;33.42;;;26.17;;
54921;SDS011;40824;45.116;21.296;2023-02-01T08:42:31;14.32;;;10.90;;
54921;SDS011;40824;45.116;21.296;2023-02-01T08:45:16;12.70;;;8.00;;
54921;SDS011;40824;45.116;21.296;2023-02-01T08:47:43;10.43;;;8.30;;
54921;SDS011;40824;45.116;21.296;2023-02-01T08:50:10;14.50;;;10.20;;
54921;SDS011;40824;45.116;21.296;2023-02-01T08:52:36;11.45;;;9.30;;
54921;SDS011;40824;45.116;21.296;2023-02-01T08:55:02;12.02;;;8.85;;
54921;SDS011;40824;45.116;21.296;2023-02-01T08:57:28;10.30;;;8.15;;
54921;SDS011;40824;45.116;21.296;2023-02-01T08:59:55;10.52;;;8.95;;
54921;SDS011;40824;45.116;21.296;2023-02-01T09:02:21;11.25;;;8.60;;
54921;SDS011;40824;45.116;21.296;2023-02-01T09:04:47;10.98;;;8.68;;
54921;SDS011;40824;45.116;21.296;2023-02-01T09:07:13;14.13;;;11.43;;
54921;SDS011;40824;45.116;21.296;2023-02-01T09:09:41;13.25;;;9.48;;
54921;SDS011;40824;45.116;21.296;2023-02-01T09:12:07;12.30;;;9.40;;
54921;SDS011;40824;45.116;21.296;2023-02-01T09:14:33;11.98;;;9.07;;
54921;SDS011;40824;45.116;21.296;2023-02-01T09:17:00;10.70;;;8.25;;
54921;SDS011;40824;45.116;21.296;2023-02-01T09:19:26;12.48;;;8.93;;
54921;SDS011;40824;45.116;21.296;2023-02-01T09:21:52;12.00;;;7.03;;
54921;SDS011;40824;45.116;21.296;2023-02-01T09:24:18;7.75;;;5.25;;
54921;SDS011;40824;45.116;21.296;2023-02-01T09:26:45;9.07;;;5.82;;
54921;SDS011;40824;45.116;21.296;2023-02-01T09:29:11;20.25;;;5.97;;
54921;SDS011;40824;45.116;21.296;2023-02-01T09:31:37;7.05;;;5.50;;
54921;SDS011;40824;45.116;21.296;2023-02-01T09:34:04;8.90;;;5.80;;
54921;SDS011;40824;45.116;21.296;2023-02-01T09:36:30;13.32;;;9.25;;
54921;SDS011;40824;45.116;21.296;2023-02-01T09:38:56;15.43;;;10.65;;
54921;SDS011;40824;45.116;21.296;2023-02-01T09:43:53;15.52;;;11.43;;
54921;SDS011;40824;45.116;21.296;2023-02-01T09:46:23;11.02;;;8.63;;
54921;SDS011;40824;45.116;21.296;2023-02-01T09:48:52;11.90;;;7.82;;
54921;SDS011;40824;45.116;21.296;2023-02-01T09:51:20;12.55;;;8.27;;
54921;SDS011;40824;45.116;21.296;2023-02-01T09:53:52;9.68;;;7.57;;
54921;SDS011;40824;45.116;21.296;2023-02-01T09:56:24;11.73;;;8.77;;
54921;SDS011;40824;45.116;21.296;2023-02-01T09:59:08;13.40;;;9.68;;
54921;SDS011;40824;45.116;21.296;2023-02-01T10:01:35;11.02;;;8.80;;
54921;SDS011;40824;45.116;21.296;2023-02-01T10:04:02;10.65;;;8.32;;
54921;SDS011;40824;45.116;21.296;2023-02-01T10:09:33;8.07;;;6.10;;
54921;SDS011;40824;45.116;21.296;2023-02-01T10:20:07;8.15;;;4.78;;
54921;SDS011;40824;45.116;21.296;2023-02-01T10:27:41;4.70;;;3.45;;
54921;SDS011;40824;45.116;21.296;2023-02-01T10:30:14;6.40;;;3.83;;
54921;SDS011;40824;45.116;21.296;2023-02-01T10:32:41;4.93;;;3.75;;
54921;SDS011;40824;45.116;21.296;2023-02-01T10:35:09;5.20;;;3.88;;
54921;SDS011;40824;45.116;21.296;2023-02-01T10:37:38;9.52;;;4.30;;
54921;SDS011;40824;45.116;21.296;2023-02-01T10:40:12;6.82;;;4.68;;
54921;SDS011;40824;45.116;21.296;2023-02-01T10:42:41;6.25;;;4.38;;
54921;SDS011;40824;45.116;21.296;2023-02-01T10:45:11;5.60;;;4.53;;
54921;SDS011;40824;45.116;21.296;2023-02-01T10:47:38;5.35;;;3.85;;
54921;SDS011;40824;45.116;21.296;2023-02-01T10:52:36;5.28;;;3.67;;
54921;SDS011;40824;45.116;21.296;2023-02-01T10:57:58;7.13;;;4.47;;
54921;SDS011;40824;45.116;21.296;2023-02-01T11:00:24;8.02;;;4.63;;
54921;SDS011;40824;45.116;21.296;2023-02-01T11:02:51;7.28;;;4.18;;
54921;SDS011;40824;45.116;21.296;2023-02-01T11:05:17;8.50;;;4.47;;
54921;SDS011;40824;45.116;21.296;2023-02-01T11:07:48;9.35;;;5.65;;
54921;SDS011;40824;45.116;21.296;2023-02-01T11:10:34;11.35;;;5.43;;
54921;SDS011;40824;45.116;21.296;2023-02-01T11:13:04;7.45;;;5.05;;
54921;SDS011;40824;45.116;21.296;2023-02-01T11:15:30;8.43;;;5.03;;
54921;SDS011;40824;45.116;21.296;2023-02-01T11:17:56;10.95;;;6.10;;
54921;SDS011;40824;45.116;21.296;2023-02-01T11:22:59;9.82;;;7.00;;
54921;SDS011;40824;45.116;21.296;2023-02-01T11:25:26;11.38;;;6.10;;
54921;SDS011;40824;45.116;21.296;2023-02-01T11:27:54;8.43;;;5.55;;
54921;SDS011;40824;45.116;21.296;2023-02-01T11:30:34;10.30;;;7.13;;
54921;SDS011;40824;45.116;21.296;2023-02-01T11:33:01;14.43;;;7.63;;
54921;SDS011;40824;45.116;21.296;2023-02-01T11:35:28;9.98;;;6.82;;
54921;SDS011;40824;45.116;21.296;2023-02-01T11:37:57;8.20;;;5.70;;
54921;SDS011;40824;45.116;21.296;2023-02-01T11:43:16;9.10;;;5.05;;
54921;SDS011;40824;45.116;21.296;2023-02-01T11:45:38;10.73;;;6.90;;
54921;SDS011;40824;45.116;21.296;2023-02-01T11:48:09;9.45;;;6.82;;
54921;SDS011;40824;45.116;21.296;2023-02-01T11:53:09;12.18;;;5.63;;
54921;SDS011;40824;45.116;21.296;2023-02-01T11:55:56;10.57;;;6.45;;
54921;SDS011;40824;45.116;21.296;2023-02-01T12:11:36;11.23;;;6.43;;
54921;SDS011;40824;45.116;21.296;2023-02-01T12:14:08;9.57;;;4.53;;
54921;SDS011;40824;45.116;21.296;2023-02-01T12:25:10;10.00;;;4.15;;
54921;SDS011;40824;45.116;21.296;2023-02-01T12:43:17;14.85;;;4.82;;
54921;SDS011;40824;45.116;21.296;2023-02-01T12:45:49;13.63;;;7.38;;
54921;SDS011;40824;45.116;21.296;2023-02-01T12:50:47;10.63;;;6.28;;
54921;SDS011;40824;45.116;21.296;2023-02-01T12:53:17;11.88;;;5.53;;
54921;SDS011;40824;45.116;21.296;2023-02-01T12:55:47;16.67;;;6.70;;
54921;SDS011;40824;45.116;21.296;2023-02-01T12:58:17;11.82;;;7.43;;
54921;SDS011;40824;45.116;21.296;2023-02-01T13:00:46;15.23;;;7.20;;
54921;SDS011;40824;45.116;21.296;2023-02-01T13:08:16;11.98;;;6.90;;
54921;SDS011;40824;45.116;21.296;2023-02-01T13:10:45;13.30;;;8.82;;
54921;SDS011;40824;45.116;21.296;2023-02-01T13:18:19;18.27;;;12.05;;
54921;SDS011;40824;45.116;21.296;2023-02-01T13:20:51;17.60;;;9.68;;
54921;SDS011;40824;45.116;21.296;2023-02-01T13:23:29;14.70;;;8.48;;
54921;SDS011;40824;45.116;21.296;2023-02-01T13:25:56;15.35;;;8.02;;
54921;SDS011;40824;45.116;21.296;2023-02-01T13:28:30;16.10;;;8.52;;
54921;SDS011;40824;45.116;21.296;2023-02-01T13:44:31;11.70;;;5.97;;
54921;SDS011;40824;45.116;21.296;2023-02-01T13:46:59;11.95;;;6.05;;
54921;SDS011;40824;45.116;21.296;2023-02-01T13:49:27;15.15;;;7.28;;
54921;SDS011;40824;45.116;21.296;2023-02-01T13:52:02;14.18;;;7.57;;
54921;SDS011;40824;45.116;21.296;2023-02-01T13:54:30;11.57;;;6.88;;
54921;SDS011;40824;45.116;21.296;2023-02-01T13:56:58;17.48;;;7.57;;
54921;SDS011;40824;45.116;21.296;2023-02-01T14:04:50;12.40;;;7.70;;
54921;SDS011;40824;45.116;21.296;2023-02-01T14:07:18;14.15;;;7.53;;
54921;SDS011;40824;45.116;21.296;2023-02-01T14:09:44;14.70;;;7.35;;
54921;SDS011;40824;45.116;21.296;2023-02-01T14:15:16;16.60;;;7.68;;
54921;SDS011;40824;45.116;21.296;2023-02-01T14:17:41;15.75;;;9.20;;
54921;SDS011;40824;45.116;21.296;2023-02-01T14:22:51;11.00;;;7.55;;
54921;SDS011;40824;45.116;21.296;2023-02-01T14:25:25;14.70;;;8.90;;
54921;SDS011;40824;45.116;21.296;2023-02-01T14:27:57;21.58;;;13.13;;
54921;SDS011;40824;45.116;21.296;2023-02-01T14:30:23;23.10;;;13.15;;
54921;SDS011;40824;45.116;21.296;2023-02-01T14:32:49;27.27;;;17.58;;
54921;SDS011;40824;45.116;21.296;2023-02-01T14:35:26;24.90;;;13.95;;
54921;SDS011;40824;45.116;21.296;2023-02-01T14:37:53;26.38;;;12.82;;
54921;SDS011;40824;45.116;21.296;2023-02-01T14:40:25;24.23;;;14.10;;
54921;SDS011;40824;45.116;21.296;2023-02-01T14:42:52;21.90;;;13.55;;
54921;SDS011;40824;45.116;21.296;2023-02-01T14:47:45;24.95;;;13.43;;
54921;SDS011;40824;45.116;21.296;2023-02-01T14:50:20;33.42;;;19.40;;
54921;SDS011;40824;45.116;21.296;2023-02-01T14:58:05;20.77;;;11.63;;
54921;SDS011;40824;45.116;21.296;2023-02-01T15:00:31;21.27;;;11.25;;
54921;SDS011;40824;45.116;21.296;2023-02-01T15:05:42;25.60;;;17.92;;
54921;SDS011;40824;45.116;21.296;2023-02-01T15:08:16;27.50;;;19.83;;
54921;SDS011;40824;45.116;21.296;2023-02-01T15:10:44;40.15;;;25.50;;
54921;SDS011;40824;45.116;21.296;2023-02-01T15:13:24;46.70;;;32.42;;
54921;SDS011;40824;45.116;21.296;2023-02-01T15:16:02;40.85;;;31.23;;
54921;SDS011;40824;45.116;21.296;2023-02-01T15:18:28;36.55;;;22.25;;
54921;SDS011;40824;45.116;21.296;2023-02-01T15:20:59;31.38;;;17.55;;
54921;SDS011;40824;45.116;21.296;2023-02-01T15:23:25;26.75;;;16.85;;
54921;SDS011;40824;45.116;21.296;2023-02-01T15:25:52;19.75;;;13.35;;
54921;SDS011;40824;45.116;21.296;2023-02-01T15:28:26;23.20;;;14.07;;
54921;SDS011;40824;45.116;21.296;2023-02-01T15:30:53;17.60;;;12.20;;
54921;SDS011;40824;45.116;21.296;2023-02-01T15:33:19;17.00;;;11.73;;
54921;SDS011;40824;45.116;21.296;2023-02-01T15:35:47;20.15;;;12.80;;
54921;SDS011;40824;45.116;21.296;2023-02-01T15:41:20;24.20;;;16.65;;
54921;SDS011;40824;45.116;21.296;2023-02-01T15:46:28;38.17;;;24.08;;
54921;SDS011;40824;45.116;21.296;2023-02-01T15:48:55;34.33;;;20.83;;
54921;SDS011;40824;45.116;21.296;2023-02-01T15:51:22;83.07;;;52.20;;
54921;SDS011;40824;45.116;21.296;2023-02-01T15:53:50;45.95;;;28.23;;
54921;SDS011;40824;45.116;21.296;2023-02-01T15:56:21;40.75;;;26.00;;
54921;SDS011;40824;45.116;21.296;2023-02-01T15:58:48;42.45;;;24.95;;
54921;SDS011;40824;45.116;21.296;2023-02-01T16:01:16;51.80;;;31.80;;
54921;SDS011;40824;45.116;21.296;2023-02-01T16:03:43;56.33;;;32.67;;
54921;SDS011;40824;45.116;21.296;2023-02-01T16:06:12;62.20;;;36.13;;
54921;SDS011;40824;45.116;21.296;2023-02-01T16:08:55;75.82;;;37.50;;
54921;SDS011;40824;45.116;21.296;2023-02-01T16:11:29;93.45;;;54.75;;
54921;SDS011;40824;45.116;21.296;2023-02-01T16:13:56;73.93;;;46.83;;
54921;SDS011;40824;45.116;21.296;2023-02-01T16:16:23;62.20;;;42.53;;
54921;SDS011;40824;45.116;21.296;2023-02-01T16:18:49;66.75;;;42.75;;
54921;SDS011;40824;45.116;21.296;2023-02-01T16:21:15;53.65;;;33.15;;
54921;SDS011;40824;45.116;21.296;2023-02-01T16:23:41;51.20;;;33.58;;
54921;SDS011;40824;45.116;21.296;2023-02-01T16:26:07;47.67;;;33.38;;
54921;SDS011;40824;45.116;21.296;2023-02-01T16:28:34;45.60;;;29.23;;
54921;SDS011;40824;45.116;21.296;2023-02-01T16:31:00;42.67;;;29.50;;
54921;SDS011;40824;45.116;21.296;2023-02-01T16:33:26;42.30;;;30.65;;
54921;SDS011;40824;45.116;21.296;2023-02-01T16:35:54;49.58;;;34.40;;
54921;SDS011;40824;45.116;21.296;2023-02-01T16:38:22;48.83;;;34.42;;
54921;SDS011;40824;45.116;21.296;2023-02-01T16:40:49;44.47;;;29.92;;
54921;SDS011;40824;45.116;21.296;2023-02-01T16:43:19;57.58;;;37.97;;
54921;SDS011;40824;45.116;21.296;2023-02-01T16:45:46;39.35;;;25.30;;
54921;SDS011;40824;45.116;21.296;2023-02-01T16:48:18;46.97;;;30.92;;
54921;SDS011;40824;45.116;21.296;2023-02-01T16:50:45;50.47;;;29.42;;
54921;SDS011;40824;45.116;21.296;2023-02-01T16:53:11;56.92;;;34.15;;
54921;SDS011;40824;45.116;21.296;2023-02-01T16:55:39;65.22;;;39.25;;
54921;SDS011;40824;45.116;21.296;2023-02-01T16:58:05;52.83;;;33.08;;